Time;durP1;ratioP1;P1;durP2;ratioP2;P2;SDS_P1;SDS_P2;PMS_P1;PMS_P2;Temp;Humidity;BMP_temperature;BMP_pressure;BME280_temperature;BME280_humidity;BME280_pressure;Samples;Min_cycle;Max_cycle;Signal;HPM_P1;HPM_P2
2022/09/25 00:00:28;;;;;;;4.33;1.60;;;23.40;99.90;;;;;;4970147;28;20235;-91
2022/09/25 00:03:01;;;;;;;1.83;1.37;;;23.40;99.90;;;;;;4965536;29;20221;-95
2022/09/25 00:05:37;;;;;;;2.47;1.60;;;23.20;99.90;;;;;;4964178;28;20621;-96
2022/09/25 00:08:10;;;;;;;3.20;1.80;;;23.10;99.90;;;;;;4962693;28;20622;-96
2022/09/25 00:10:44;;;;;;;2.10;1.53;;;22.90;99.90;;;;;;4969150;28;20229;-95
2022/09/25 00:13:21;;;;;;;2.70;1.80;;;22.80;99.90;;;;;;4967304;28;20215;-96
2022/09/25 00:15:55;;;;;;;3.20;1.63;;;22.60;99.90;;;;;;4966437;29;20214;-96
2022/09/25 00:21:18;;;;;;;4.50;2.03;;;22.40;99.90;;;;;;4976336;28;20302;-95
2022/09/25 00:23:49;;;;;;;2.13;1.67;;;22.30;99.90;;;;;;4976430;28;20200;-96
2022/09/25 00:26:21;;;;;;;2.87;1.87;;;22.20;99.90;;;;;;4976808;28;20196;-96
2022/09/25 00:28:52;;;;;;;3.93;1.90;;;22.10;99.90;;;;;;4977807;28;20199;-96
2022/09/25 00:31:25;;;;;;;2.83;2.13;;;22.10;99.90;;;;;;4976781;28;20291;-96
2022/09/25 00:34:02;;;;;;;2.90;2.30;;;22.10;99.90;;;;;;4976750;28;20218;-95
2022/09/25 00:36:34;;;;;;;4.70;2.10;;;22.00;99.90;;;;;;4978669;28;20195;-96
2022/09/25 00:39:06;;;;;;;4.37;2.47;;;22.00;99.90;;;;;;4981253;28;20240;-96
2022/09/25 00:41:38;;;;;;;4.30;1.90;;;22.00;99.90;;;;;;4980046;28;20262;-95
2022/09/25 00:44:55;;;;;;;4.20;2.40;;;21.90;99.90;;;;;;4977229;28;20242;-95
2022/09/25 00:47:48;;;;;;;4.40;2.30;;;21.90;99.90;;;;;;4946727;29;20216;-96
2022/09/25 00:50:30;;;;;;;3.67;2.20;;;21.90;99.90;;;;;;4957220;29;20215;-96
2022/09/25 00:53:06;;;;;;;5.67;2.57;;;21.70;99.90;;;;;;4962884;28;20546;-96
2022/09/25 00:55:39;;;;;;;2.77;2.43;;;21.60;99.90;;;;;;4964193;28;20215;-96
2022/09/25 00:58:13;;;;;;;5.30;2.50;;;21.50;99.90;;;;;;4963716;28;20219;-96
2022/09/25 01:00:45;;;;;;;5.30;2.40;;;21.40;99.90;;;;;;4965122;28;20211;-96
2022/09/25 01:03:19;;;;;;;2.97;2.13;;;21.40;99.90;;;;;;4968503;28;20201;-95
2022/09/25 01:05:53;;;;;;;4.00;2.83;;;21.30;99.90;;;;;;4964987;28;20214;-96
2022/09/25 01:08:28;;;;;;;4.43;2.63;;;21.20;99.90;;;;;;4963720;29;20199;-96
2022/09/25 01:11:00;;;;;;;5.77;3.10;;;21.10;99.90;;;;;;4964989;28;20238;-96
2022/09/25 01:13:31;;;;;;;4.67;3.00;;;21.10;99.90;;;;;;4964249;29;20692;-96
2022/09/25 01:16:10;;;;;;;4.10;2.70;;;21.00;99.90;;;;;;4967392;28;20199;-95
2022/09/25 01:18:52;;;;;;;3.13;2.37;;;20.90;99.90;;;;;;4969122;28;20691;-94
2022/09/25 01:21:34;;;;;;;6.93;2.97;;;20.90;99.90;;;;;;4950656;28;20220;-95
2022/09/25 01:24:50;;;;;;;4.97;2.60;;;20.80;99.90;;;;;;4948277;29;20212;-96
2022/09/25 01:27:50;;;;;;;3.37;2.90;;;20.70;99.90;;;;;;4960713;29;20209;-95
2022/09/25 01:30:24;;;;;;;4.57;3.17;;;20.60;99.90;;;;;;4948178;29;20212;-96
2022/09/25 01:33:04;;;;;;;5.63;3.07;;;20.50;99.90;;;;;;4948911;29;20295;-95
2022/09/25 01:35:43;;;;;;;4.90;2.90;;;20.40;99.90;;;;;;4950648;29;20231;-95
2022/09/25 01:38:25;;;;;;;6.43;2.93;;;20.20;99.90;;;;;;4957304;28;20208;-94
2022/09/25 01:41:03;;;;;;;4.10;2.83;;;20.10;99.90;;;;;;4968132;29;20301;-95
2022/09/25 01:43:38;;;;;;;4.93;2.47;;;20.00;99.90;;;;;;4976289;28;20283;-94
2022/09/25 01:46:17;;;;;;;6.33;2.80;;;19.90;99.90;;;;;;4975587;28;20210;-94
2022/09/25 01:48:53;;;;;;;4.73;2.50;;;19.80;99.90;;;;;;4968785;28;20211;-94
2022/09/25 01:51:28;;;;;;;4.83;2.63;;;19.70;99.90;;;;;;4972709;28;20231;-95
2022/09/25 01:54:06;;;;;;;3.50;3.07;;;19.60;99.90;;;;;;4970163;28;20207;-95
2022/09/25 01:56:43;;;;;;;4.73;3.17;;;19.40;99.90;;;;;;4960724;29;20215;-95
2022/09/25 01:59:19;;;;;;;4.20;2.90;;;19.40;99.90;;;;;;4960420;28;20214;-95
2022/09/25 02:01:55;;;;;;;4.57;2.53;;;19.30;99.90;;;;;;4959021;29;20218;-95
2022/09/25 02:04:34;;;;;;;4.90;2.40;;;19.20;99.90;;;;;;4961331;28;20566;-95
2022/09/25 02:07:10;;;;;;;4.40;2.50;;;19.10;99.90;;;;;;4960643;28;20218;-95
2022/09/25 02:09:45;;;;;;;4.73;2.77;;;19.00;99.90;;;;;;4959513;29;20203;-95
2022/09/25 02:12:20;;;;;;;5.07;2.77;;;19.00;99.90;;;;;;4960320;28;20270;-96
2022/09/25 02:14:55;;;;;;;4.07;2.43;;;18.90;99.90;;;;;;4960800;29;20215;-96
2022/09/25 02:20:35;;;;;;;6.63;3.17;;;18.80;99.90;;;;;;4957088;29;20228;-96
2022/09/25 02:23:15;;;;;;;11.43;3.07;;;18.70;99.90;;;;;;4959875;28;20215;-95
2022/09/25 02:25:53;;;;;;;4.30;2.67;;;18.60;99.90;;;;;;4955810;28;20641;-96
2022/09/25 02:28:25;;;;;;;4.83;2.87;;;18.50;99.90;;;;;;4947469;29;20192;-96
2022/09/25 02:31:00;;;;;;;6.13;2.93;;;18.40;99.90;;;;;;4967042;29;20652;-96
2022/09/25 02:33:36;;;;;;;5.77;2.80;;;18.40;99.90;;;;;;4971557;28;20297;-96
2022/09/25 02:36:18;;;;;;;5.97;3.00;;;18.30;99.90;;;;;;4968226;28;20570;-96
2022/09/25 02:38:54;;;;;;;3.07;2.77;;;18.10;99.90;;;;;;4974091;28;20219;-96
2022/09/25 02:41:42;;;;;;;6.93;2.97;;;18.10;99.90;;;;;;4968671;28;20259;-96
2022/09/25 02:44:27;;;;;;;4.30;2.93;;;17.90;99.90;;;;;;5142499;23;20205;-96
2022/09/25 02:52:35;;;;;;;5.20;3.20;;;17.70;99.90;;;;;;5538969;23;10001920;-94
2022/09/25 02:55:11;;;;;;;5.60;3.17;;;17.60;99.90;;;;;;4980716;28;20207;-96
2022/09/25 02:57:51;;;;;;;5.50;2.97;;;17.60;99.90;;;;;;4989831;28;20243;-96
2022/09/25 03:00:25;;;;;;;7.80;2.90;;;17.50;99.90;;;;;;4990969;28;20199;-96
2022/09/25 03:02:59;;;;;;;5.70;3.90;;;17.60;99.90;;;;;;4984647;28;20206;-96
2022/09/25 03:05:31;;;;;;;6.73;4.63;;;17.50;99.90;;;;;;4988557;28;20211;-96
2022/09/25 03:10:54;;;;;;;8.73;6.30;;;17.40;99.90;;;;;;4982501;28;20215;-96
2022/09/25 03:13:30;;;;;;;6.77;5.20;;;17.40;99.90;;;;;;4970933;28;20226;-96
2022/09/25 03:16:04;;;;;;;6.33;5.73;;;17.40;99.90;;;;;;4983860;28;20206;-96
2022/09/25 03:18:36;;;;;;;9.40;6.10;;;17.20;99.90;;;;;;4984659;28;20301;-96
2022/09/25 03:21:09;;;;;;;8.07;7.27;;;17.30;99.90;;;;;;4982225;28;20723;-96
2022/09/25 03:23:42;;;;;;;13.00;11.70;;;17.20;99.90;;;;;;4981814;28;20214;-96
2022/09/25 03:26:15;;;;;;;18.27;16.50;;;17.20;99.90;;;;;;4980619;28;20718;-91
2022/09/25 03:28:48;;;;;;;11.57;10.40;;;17.30;99.90;;;;;;4960928;28;20652;-96
2022/09/25 03:31:20;;;;;;;20.80;18.90;;;17.30;99.90;;;;;;4978693;28;20301;-96
2022/09/25 03:33:51;;;;;;;7.10;6.50;;;17.20;99.90;;;;;;4976092;28;20230;-95
2022/09/25 03:36:24;;;;;;;5.87;3.80;;;17.20;99.90;;;;;;4976154;28;20231;-95
2022/09/25 03:38:58;;;;;;;10.23;6.67;;;17.20;99.90;;;;;;4980090;28;20584;-96
2022/09/25 03:41:33;;;;;;;8.60;7.77;;;17.30;99.90;;;;;;4978523;28;20738;-95
2022/09/25 03:44:05;;;;;;;6.63;5.90;;;17.30;99.90;;;;;;4982040;28;20217;-95
2022/09/25 03:46:38;;;;;;;4.87;3.80;;;17.20;99.90;;;;;;4983576;28;20214;-96
2022/09/25 03:49:10;;;;;;;7.87;5.70;;;17.30;99.90;;;;;;4980868;28;20214;-95
2022/09/25 03:51:43;;;;;;;9.20;5.77;;;17.20;99.90;;;;;;4983685;28;20210;-95
2022/09/25 03:54:17;;;;;;;8.83;6.20;;;17.20;99.90;;;;;;4981007;28;20223;-96
2022/09/25 03:56:51;;;;;;;6.87;5.17;;;17.20;99.90;;;;;;4983201;28;20277;-96
2022/09/25 03:59:23;;;;;;;4.70;4.23;;;17.10;99.90;;;;;;4992863;28;20538;-94
2022/09/25 04:01:56;;;;;;;6.23;4.10;;;17.10;99.90;;;;;;4987652;28;20207;-95
2022/09/25 04:04:28;;;;;;;7.47;4.07;;;17.20;99.90;;;;;;4982125;28;20214;-95
2022/09/25 04:07:00;;;;;;;6.87;5.03;;;17.10;99.90;;;;;;4981429;28;20274;-95
2022/09/25 04:09:36;;;;;;;6.57;5.03;;;17.10;99.90;;;;;;4982979;28;20653;-96
2022/09/25 04:12:07;;;;;;;8.00;5.33;;;17.10;99.90;;;;;;4985254;28;20217;-96
2022/09/25 04:14:40;;;;;;;5.20;4.70;;;17.00;99.90;;;;;;4984496;28;20293;-95
2022/09/25 04:17:12;;;;;;;5.17;3.77;;;17.00;99.90;;;;;;4983966;28;20251;-96
2022/09/25 04:19:43;;;;;;;10.80;5.70;;;16.90;99.90;;;;;;4993833;28;20270;-96
2022/09/25 04:22:15;;;;;;;5.67;3.87;;;16.90;99.90;;;;;;4984768;28;20210;-96
2022/09/25 04:24:51;;;;;;;9.50;6.97;;;16.90;99.90;;;;;;4977970;28;20223;-95
2022/09/25 04:27:24;;;;;;;8.20;6.10;;;16.80;99.90;;;;;;4982954;28;20214;-96
2022/09/25 04:29:56;;;;;;;8.30;5.80;;;16.70;99.90;;;;;;4981468;28;22586;-96
2022/09/25 04:35:15;;;;;;;16.93;10.73;;;16.70;99.90;;;;;;4977859;28;20208;-96
2022/09/25 04:37:48;;;;;;;10.60;6.50;;;16.60;99.90;;;;;;4978808;28;20213;-96
2022/09/25 04:40:22;;;;;;;15.80;12.10;;;16.50;99.90;;;;;;4982437;28;20219;-96
2022/09/25 04:42:57;;;;;;;14.00;10.53;;;16.50;99.90;;;;;;4983863;28;20210;-96
2022/09/25 04:45:30;;;;;;;9.47;6.73;;;16.50;99.90;;;;;;4974234;28;20243;-96
2022/09/25 04:48:04;;;;;;;14.57;10.70;;;16.50;99.90;;;;;;4966499;28;20229;-96
2022/09/25 04:50:35;;;;;;;16.23;13.53;;;16.50;99.90;;;;;;4989882;28;20702;-96
2022/09/25 04:53:07;;;;;;;16.23;12.03;;;16.50;99.90;;;;;;4990322;28;20742;-96
2022/09/25 04:55:42;;;;;;;14.17;9.50;;;16.50;99.90;;;;;;4989772;28;20202;-96
2022/09/25 04:58:14;;;;;;;10.13;7.37;;;16.40;99.90;;;;;;4986527;28;20196;-95
2022/09/25 05:00:46;;;;;;;6.20;4.93;;;16.40;99.90;;;;;;4974341;28;20212;-96
2022/09/25 05:03:18;;;;;;;7.53;5.73;;;16.30;99.90;;;;;;4970495;29;20310;-96
2022/09/25 05:05:51;;;;;;;3.80;3.40;;;16.30;99.90;;;;;;4973110;28;20231;-96
2022/09/25 05:08:24;;;;;;;4.03;3.10;;;16.30;99.90;;;;;;4974003;28;20211;-96
2022/09/25 05:10:58;;;;;;;3.37;2.27;;;16.20;99.90;;;;;;4972793;28;20243;-96
2022/09/25 05:13:30;;;;;;;4.90;2.83;;;16.10;99.90;;;;;;4973424;28;20257;-96
2022/09/25 05:16:01;;;;;;;4.57;2.80;;;16.10;99.90;;;;;;4990808;28;20222;-96
2022/09/25 05:18:33;;;;;;;2.80;2.47;;;16.00;99.90;;;;;;4990937;28;20214;-96
2022/09/25 05:21:06;;;;;;;3.87;2.73;;;15.90;99.90;;;;;;4984807;28;20214;-96
2022/09/25 05:23:37;;;;;;;7.10;2.97;;;15.90;99.90;;;;;;4986918;28;20219;-95
2022/09/25 05:26:12;;;;;;;4.10;2.70;;;15.90;99.90;;;;;;5000022;28;20213;-96
2022/09/25 05:28:45;;;;;;;5.17;2.63;;;15.90;99.90;;;;;;4980133;28;20207;-96
2022/09/25 05:31:17;;;;;;;2.80;2.50;;;15.80;99.90;;;;;;4965909;28;20220;-96
2022/09/25 05:33:50;;;;;;;3.40;2.43;;;15.80;99.90;;;;;;4962705;28;20243;-96
2022/09/25 05:36:22;;;;;;;4.30;2.47;;;15.70;99.90;;;;;;4964348;28;20222;-96
2022/09/25 05:38:53;;;;;;;3.47;2.60;;;15.70;99.90;;;;;;4976794;28;20668;-95
2022/09/25 05:41:30;;;;;;;3.13;2.40;;;15.60;99.90;;;;;;4961367;28;20227;-96
2022/09/25 05:44:01;;;;;;;7.23;2.80;;;15.60;99.90;;;;;;4963222;28;20302;-95
2022/09/25 05:46:34;;;;;;;4.00;2.60;;;15.50;99.90;;;;;;4962232;29;20230;-95
2022/09/25 05:49:07;;;;;;;4.43;2.47;;;15.50;99.90;;;;;;4967931;28;20353;-96
2022/09/25 05:51:41;;;;;;;4.83;2.73;;;15.50;99.90;;;;;;4984582;28;20206;-96
2022/09/25 05:54:13;;;;;;;5.23;2.67;;;15.40;99.90;;;;;;4988846;28;20249;-96
2022/09/25 05:56:46;;;;;;;5.30;2.97;;;15.40;99.90;;;;;;4985972;28;20208;-94
2022/09/25 05:59:18;;;;;;;7.40;2.70;;;15.40;99.90;;;;;;4989233;28;20221;-96
2022/09/25 06:01:50;;;;;;;5.27;2.93;;;15.30;99.90;;;;;;4988875;28;20614;-96
2022/09/25 06:04:21;;;;;;;5.63;2.87;;;15.30;99.90;;;;;;4977753;28;20207;-95
2022/09/25 06:06:53;;;;;;;3.20;2.80;;;15.30;99.90;;;;;;4984860;28;20262;-94
2022/09/25 06:09:24;;;;;;;3.13;2.83;;;15.30;99.90;;;;;;4990142;28;20214;-95
2022/09/25 06:12:00;;;;;;;6.07;4.63;;;15.20;99.90;;;;;;4989015;28;20207;-96
2022/09/25 06:14:31;;;;;;;6.80;3.40;;;15.20;99.90;;;;;;4990297;28;20245;-96
2022/09/25 06:17:03;;;;;;;5.83;3.07;;;15.20;99.90;;;;;;4987303;28;20217;-96
2022/09/25 06:19:35;;;;;;;4.63;3.17;;;15.10;99.90;;;;;;4985786;28;20731;-96
2022/09/25 06:22:07;;;;;;;4.03;2.80;;;15.10;99.90;;;;;;4964484;28;20207;-96
2022/09/25 06:24:40;;;;;;;5.27;3.07;;;15.10;99.90;;;;;;4959143;29;20243;-96
2022/09/25 06:27:14;;;;;;;4.80;3.07;;;15.10;99.90;;;;;;4960440;28;20211;-95
2022/09/25 06:29:48;;;;;;;4.37;3.40;;;15.10;99.90;;;;;;4961326;28;20203;-96
2022/09/25 06:32:22;;;;;;;2.80;2.33;;;15.10;99.90;;;;;;4978442;28;20225;-96
2022/09/25 06:34:53;;;;;;;6.37;2.77;;;15.00;99.90;;;;;;4973284;28;20242;-96
2022/09/25 06:37:24;;;;;;;4.87;2.93;;;15.00;99.90;;;;;;4960483;28;20214;-95
2022/09/25 06:39:57;;;;;;;4.63;2.73;;;15.00;99.90;;;;;;4963886;28;20283;-96
2022/09/25 06:42:33;;;;;;;5.97;3.17;;;15.00;99.90;;;;;;4970471;28;20222;-96
2022/09/25 06:45:06;;;;;;;5.57;2.87;;;15.00;99.90;;;;;;4989438;28;20274;-94
2022/09/25 06:47:37;;;;;;;3.63;2.70;;;15.00;99.90;;;;;;4984027;28;20214;-96
2022/09/25 06:50:11;;;;;;;3.37;2.67;;;14.90;99.90;;;;;;4981155;28;20271;-96
2022/09/25 06:52:44;;;;;;;4.17;2.57;;;14.90;99.90;;;;;;4966305;28;20203;-96
2022/09/25 06:55:16;;;;;;;4.20;2.50;;;14.90;99.90;;;;;;4970799;28;20239;-95
2022/09/25 06:57:53;;;;;;;3.50;2.43;;;14.90;99.90;;;;;;4977776;28;20261;-96
2022/09/25 07:00:25;;;;;;;4.67;2.40;;;14.80;99.90;;;;;;4998388;28;20202;-95
2022/09/25 07:05:47;;;;;;;5.03;2.63;;;14.80;99.90;;;;;;4997470;28;20198;-96
2022/09/25 07:08:20;;;;;;;3.50;2.47;;;14.80;99.90;;;;;;4995942;28;20207;-96
2022/09/25 07:10:53;;;;;;;4.97;2.57;;;14.80;99.90;;;;;;4994280;28;20199;-96
2022/09/25 07:13:28;;;;;;;2.73;2.50;;;14.80;99.90;;;;;;4994106;28;20213;-96
2022/09/25 07:16:02;;;;;;;4.73;2.70;;;14.80;99.90;;;;;;4988157;28;20682;-96
2022/09/25 07:18:34;;;;;;;3.27;2.20;;;14.80;99.90;;;;;;4975823;28;20227;-96
2022/09/25 07:21:07;;;;;;;3.10;2.43;;;14.80;99.90;;;;;;4968381;29;20200;-96
2022/09/25 07:23:41;;;;;;;2.27;2.07;;;14.70;99.90;;;;;;4980999;28;20302;-96
2022/09/25 07:26:15;;;;;;;2.77;2.40;;;14.70;99.90;;;;;;4980883;28;20207;-96
2022/09/25 07:29:02;;;;;;;3.43;2.77;;;14.70;99.90;;;;;;4971162;28;20331;-96
2022/09/25 07:31:36;;;;;;;2.43;2.23;;;14.70;99.90;;;;;;4980801;28;20210;-96
2022/09/25 07:34:10;;;;;;;3.00;2.20;;;14.70;99.90;;;;;;4979195;28;20242;-95
2022/09/25 07:36:43;;;;;;;2.83;2.10;;;14.70;99.90;;;;;;4979972;28;20222;-95
2022/09/25 07:39:16;;;;;;;2.70;1.97;;;14.70;99.90;;;;;;4972775;28;20213;-96
2022/09/25 07:41:48;;;;;;;3.17;2.37;;;14.70;99.90;;;;;;4979711;28;20290;-96
2022/09/25 07:44:21;;;;;;;2.97;2.17;;;14.70;99.90;;;;;;4964672;28;20644;-96
2022/09/25 07:47:00;;;;;;;3.90;2.40;;;14.60;99.90;;;;;;4966188;28;20205;-96
2022/09/25 07:49:32;;;;;;;2.13;1.90;;;14.60;99.90;;;;;;4972926;28;20214;-96
2022/09/25 07:52:05;;;;;;;2.40;2.13;;;14.60;99.90;;;;;;4965830;28;20219;-96
2022/09/25 07:54:38;;;;;;;3.53;2.20;;;14.60;99.90;;;;;;4964758;28;20317;-96
2022/09/25 07:57:12;;;;;;;5.10;2.00;;;14.60;99.90;;;;;;4971334;28;20237;-96
2022/09/25 07:59:45;;;;;;;3.70;2.17;;;14.60;99.90;;;;;;4978274;28;20214;-95
2022/09/25 08:02:16;;;;;;;3.77;1.90;;;14.50;99.90;;;;;;4976795;28;20668;-96
2022/09/25 08:04:48;;;;;;;2.83;2.07;;;14.50;99.90;;;;;;5000916;28;20217;-94
2022/09/25 08:07:21;;;;;;;2.80;1.77;;;14.50;99.90;;;;;;5003078;28;20267;-95
2022/09/25 08:09:52;;;;;;;2.93;2.03;;;14.50;99.90;;;;;;4996376;28;20209;-94
2022/09/25 08:12:24;;;;;;;6.90;2.10;;;14.50;99.90;;;;;;5000832;28;20618;-96
2022/09/25 08:14:58;;;;;;;2.30;1.90;;;14.60;99.90;;;;;;4997944;28;20264;-95
2022/09/25 08:17:32;;;;;;;2.20;1.73;;;14.60;99.90;;;;;;5007025;28;20197;-96
2022/09/25 08:20:05;;;;;;;2.10;1.90;;;14.60;99.90;;;;;;5007460;28;20209;-96
2022/09/25 08:22:37;;;;;;;3.10;2.00;;;14.60;99.90;;;;;;5006463;28;20205;-95
2022/09/25 08:25:10;;;;;;;2.20;1.80;;;14.60;99.90;;;;;;4998227;28;20202;-96
2022/09/25 08:27:42;;;;;;;1.80;1.63;;;14.50;99.90;;;;;;4998593;28;20206;-96
2022/09/25 08:30:16;;;;;;;2.20;1.83;;;14.60;99.90;;;;;;5009420;28;20195;-95
2022/09/25 08:32:49;;;;;;;2.90;2.00;;;14.60;99.90;;;;;;4996634;28;20199;-96
2022/09/25 08:35:21;;;;;;;1.80;1.70;;;14.60;99.90;;;;;;4992877;28;20227;-95
2022/09/25 08:37:53;;;;;;;2.57;2.00;;;14.60;99.90;;;;;;4979137;28;20229;-96
2022/09/25 08:40:30;;;;;;;3.87;2.50;;;14.50;99.90;;;;;;4978195;28;20262;-96
2022/09/25 08:43:02;;;;;;;3.50;2.00;;;14.40;99.90;;;;;;4957819;28;20237;-96
2022/09/25 08:51:29;;;;;;;2.17;1.97;;;14.30;99.90;;;;;;4964294;28;20210;-96
2022/09/25 08:54:02;;;;;;;2.77;1.97;;;14.20;99.90;;;;;;4975466;28;20219;-95
2022/09/25 08:56:36;;;;;;;3.73;2.03;;;14.20;99.90;;;;;;4977406;28;20234;-96
2022/09/25 08:59:25;;;;;;;3.67;1.80;;;14.20;99.90;;;;;;4981244;28;20229;-96
2022/09/25 09:02:03;;;;;;;2.63;2.00;;;14.20;99.90;;;;;;4980802;28;21036;-96
2022/09/25 09:04:39;;;;;;;2.10;1.90;;;14.10;99.90;;;;;;4984221;28;20553;-96
2022/09/25 09:07:18;;;;;;;2.87;2.30;;;14.10;99.90;;;;;;4997058;28;20191;-96
2022/09/25 09:10:04;;;;;;;4.13;2.93;;;14.00;99.90;;;;;;4994941;28;20221;-96
2022/09/25 09:12:41;;;;;;;4.57;2.57;;;14.00;99.90;;;;;;4966571;29;20219;-96
2022/09/25 09:15:24;;;;;;;2.10;1.90;;;14.00;99.90;;;;;;4970081;28;20306;-96
2022/09/25 09:18:00;;;;;;;4.43;2.13;;;13.90;99.90;;;;;;4971423;28;20199;-96
2022/09/25 09:20:40;;;;;;;3.73;2.07;;;13.90;99.90;;;;;;4983596;28;20225;-96
2022/09/25 09:23:20;;;;;;;3.03;2.33;;;13.80;99.90;;;;;;4990183;28;20207;-92
2022/09/25 09:26:02;;;;;;;3.30;2.57;;;13.80;99.90;;;;;;4991054;28;20213;-95
2022/09/25 09:28:59;;;;;;;4.73;2.37;;;13.80;99.90;;;;;;4988111;28;20218;-95
2022/09/25 09:31:38;;;;;;;3.63;2.43;;;13.90;99.90;;;;;;4990247;28;20260;-95
2022/09/25 09:34:28;;;;;;;4.60;2.60;;;13.90;99.90;;;;;;4985753;28;20715;-96
2022/09/25 09:37:24;;;;;;;3.20;2.20;;;13.90;99.90;;;;;;4981594;28;20203;-95
2022/09/25 09:40:13;;;;;;;3.50;2.10;;;13.90;99.90;;;;;;4981993;28;20213;-96
2022/09/25 09:42:50;;;;;;;2.67;2.20;;;13.80;99.90;;;;;;4981666;28;20187;-96
2022/09/25 09:45:29;;;;;;;3.33;2.30;;;13.70;99.90;;;;;;4979780;28;20214;-96
2022/09/25 09:48:07;;;;;;;3.93;2.13;;;13.70;99.90;;;;;;4978631;28;20214;-96
2022/09/25 09:50:46;;;;;;;2.73;2.47;;;13.60;99.90;;;;;;4979273;28;20217;-95
2022/09/25 09:53:30;;;;;;;4.70;2.67;;;13.60;99.90;;;;;;4979022;28;20219;-96
2022/09/25 09:56:05;;;;;;;2.60;2.30;;;13.50;99.90;;;;;;4979719;28;20242;-96
2022/09/25 09:58:45;;;;;;;2.33;2.00;;;13.50;99.90;;;;;;4979914;28;20648;-96
2022/09/25 10:01:21;;;;;;;3.80;2.50;;;13.60;99.90;;;;;;4980402;28;20206;-95
2022/09/25 10:04:16;;;;;;;4.33;2.50;;;13.50;99.90;;;;;;4960715;29;20204;-96
2022/09/25 10:06:55;;;;;;;3.40;2.07;;;13.50;99.90;;;;;;4959764;28;20218;-96
2022/09/25 10:09:28;;;;;;;3.70;2.40;;;13.50;99.90;;;;;;4958469;28;20211;-96
2022/09/25 10:12:06;;;;;;;5.77;2.80;;;13.40;99.90;;;;;;4960049;28;20569;-96
2022/09/25 10:14:42;;;;;;;2.80;2.40;;;13.40;99.90;;;;;;4962723;28;20266;-96
2022/09/25 10:17:14;;;;;;;4.10;2.30;;;13.40;99.90;;;;;;4966137;28;20223;-96
2022/09/25 10:19:55;;;;;;;3.27;2.60;;;13.30;99.90;;;;;;4968144;28;20208;-96
2022/09/25 10:22:39;;;;;;;5.70;2.80;;;13.30;99.90;;;;;;4966913;29;20298;-96
2022/09/25 10:25:10;;;;;;;6.37;2.83;;;13.30;99.90;;;;;;4967725;28;20207;-96
2022/09/25 10:27:44;;;;;;;5.00;2.80;;;13.30;99.90;;;;;;4967838;28;20251;-96
2022/09/25 10:30:30;;;;;;;3.27;2.57;;;13.20;99.90;;;;;;4967786;28;20229;-95
2022/09/25 10:33:12;;;;;;;3.77;2.83;;;13.20;99.90;;;;;;4959688;28;20294;-96
2022/09/25 10:35:45;;;;;;;3.27;2.43;;;13.20;99.90;;;;;;4960578;29;20308;-96
2022/09/25 10:38:32;;;;;;;3.93;2.50;;;13.10;99.90;;;;;;4968212;28;20222;-95
2022/09/25 10:41:07;;;;;;;6.40;2.60;;;13.10;99.90;;;;;;4964661;28;20211;-96
2022/09/25 10:43:53;;;;;;;3.90;2.90;;;13.10;99.90;;;;;;4960919;28;20208;-96
2022/09/25 10:52:10;;;;;;;3.80;2.60;;;13.00;99.90;;;;;;4983568;28;20302;-95
2022/09/25 10:54:45;;;;;;;3.17;2.73;;;12.90;99.90;;;;;;4986944;28;20237;-95
2022/09/25 10:57:25;;;;;;;3.87;2.60;;;12.90;99.90;;;;;;4991827;28;20325;-96
2022/09/25 10:59:57;;;;;;;2.83;2.63;;;12.90;99.90;;;;;;4998629;28;20266;-95
2022/09/25 11:02:36;;;;;;;3.43;2.90;;;12.90;99.90;;;;;;4989906;28;20199;-96
2022/09/25 11:05:16;;;;;;;3.50;2.67;;;12.90;99.90;;;;;;4978793;28;20199;-94
2022/09/25 11:07:51;;;;;;;6.07;2.83;;;12.80;99.90;;;;;;4977562;28;20211;-95
2022/09/25 11:10:25;;;;;;;3.13;2.80;;;12.90;99.90;;;;;;4959924;29;20216;-94
2022/09/25 11:12:58;;;;;;;3.37;2.63;;;12.80;99.90;;;;;;4960685;28;20290;-95
2022/09/25 11:15:29;;;;;;;4.77;3.13;;;12.80;99.90;;;;;;4968623;28;20211;-95
2022/09/25 11:18:01;;;;;;;3.37;2.50;;;12.80;99.90;;;;;;4984591;28;20575;-96
2022/09/25 11:20:34;;;;;;;4.77;3.00;;;12.80;99.90;;;;;;4982522;28;20276;-95
2022/09/25 11:23:20;;;;;;;3.33;2.80;;;12.80;99.90;;;;;;4981748;28;20656;-96
2022/09/25 11:26:04;;;;;;;3.47;2.67;;;12.70;99.90;;;;;;4980396;28;20213;-96
2022/09/25 11:28:43;;;;;;;6.97;3.20;;;12.70;99.90;;;;;;4990799;28;20207;-95
2022/09/25 11:31:23;;;;;;;4.03;2.60;;;12.60;99.90;;;;;;4992145;28;20195;-96
2022/09/25 11:34:06;;;;;;;3.87;3.43;;;12.60;99.90;;;;;;4985619;28;20293;-96
2022/09/25 11:36:42;;;;;;;6.33;3.47;;;12.60;99.90;;;;;;4987515;28;20254;-96
2022/09/25 11:42:19;;;;;;;4.03;3.00;;;12.50;99.90;;;;;;4983890;28;20225;-96
2022/09/25 11:45:01;;;;;;;3.97;3.10;;;12.60;99.90;;;;;;4988190;28;20686;-96
2022/09/25 11:47:39;;;;;;;3.10;2.77;;;12.50;99.90;;;;;;4983448;28;20298;-96
2022/09/25 11:50:16;;;;;;;5.87;2.77;;;12.50;99.90;;;;;;4977021;28;20214;-96
2022/09/25 11:52:58;;;;;;;3.87;2.80;;;12.60;99.90;;;;;;4978806;28;20246;-95
2022/09/25 11:55:54;;;;;;;5.23;3.27;;;12.50;99.90;;;;;;4978116;28;20219;-96
2022/09/25 11:58:45;;;;;;;7.63;2.87;;;12.50;99.90;;;;;;4977178;28;20225;-96
2022/09/25 12:01:27;;;;;;;4.90;3.30;;;12.50;99.90;;;;;;4976512;28;20207;-95
2022/09/25 12:04:38;;;;;;;5.43;3.47;;;12.50;99.90;;;;;;4957952;28;20327;-96
2022/09/25 12:07:32;;;;;;;4.00;3.70;;;12.50;99.90;;;;;;4923227;28;20366;-95
2022/09/25 12:10:19;;;;;;;5.23;3.00;;;12.50;99.90;;;;;;4958423;28;20204;-95
2022/09/25 12:13:00;;;;;;;4.43;3.40;;;12.50;99.90;;;;;;4958350;28;20199;-96
2022/09/25 12:15:48;;;;;;;4.00;3.50;;;12.50;99.90;;;;;;4959696;28;20634;-94
2022/09/25 12:18:34;;;;;;;4.97;3.27;;;12.50;99.90;;;;;;4960540;29;20245;-95
2022/09/25 12:21:14;;;;;;;4.60;3.70;;;12.40;99.90;;;;;;4964198;29;20222;-95
2022/09/25 12:23:53;;;;;;;5.03;3.63;;;12.40;99.90;;;;;;4974440;28;20207;-96
2022/09/25 12:26:30;;;;;;;5.07;3.40;;;12.40;99.90;;;;;;4977569;28;20203;-95
2022/09/25 12:29:18;;;;;;;5.30;3.90;;;12.30;99.90;;;;;;4976552;28;20271;-96
2022/09/25 12:31:59;;;;;;;6.77;4.57;;;12.30;99.90;;;;;;4976095;28;20203;-96
2022/09/25 12:34:45;;;;;;;6.30;4.50;;;12.30;99.90;;;;;;4976492;28;20211;-94
2022/09/25 12:37:23;;;;;;;5.40;4.90;;;12.30;99.90;;;;;;4974119;29;20235;-96
2022/09/25 12:40:03;;;;;;;9.00;5.30;;;12.30;99.90;;;;;;4967007;28;20218;-95
2022/09/25 12:42:43;;;;;;;6.43;5.83;;;12.30;99.90;;;;;;4964781;28;20577;-96
2022/09/25 12:45:21;;;;;;;7.77;5.90;;;12.20;99.90;;;;;;4966023;28;20230;-96
2022/09/25 12:48:08;;;;;;;6.57;5.97;;;12.20;99.90;;;;;;4969090;28;20211;-93
2022/09/25 12:50:47;;;;;;;10.60;7.00;;;12.20;99.90;;;;;;4964536;28;20228;-96
2022/09/25 12:53:29;;;;;;;9.40;6.17;;;12.20;99.90;;;;;;4965727;28;20214;-95
2022/09/25 12:56:11;;;;;;;13.67;7.47;;;12.10;99.90;;;;;;4995663;28;20256;-96
2022/09/25 12:59:01;;;;;;;8.10;6.30;;;12.10;99.90;;;;;;5000318;28;20278;-95
2022/09/25 13:01:44;;;;;;;9.27;6.70;;;12.10;99.90;;;;;;4999123;28;20205;-96
2022/09/25 13:04:43;;;;;;;8.47;7.13;;;12.10;99.90;;;;;;4988951;28;20206;-96
2022/09/25 13:07:20;;;;;;;10.60;7.00;;;12.10;99.90;;;;;;4999824;28;20197;-96
2022/09/25 13:09:52;;;;;;;7.70;6.87;;;12.10;99.90;;;;;;5000460;28;20191;-95
2022/09/25 13:12:34;;;;;;;10.67;7.77;;;12.10;99.90;;;;;;4999505;28;20265;-95
2022/09/25 13:15:09;;;;;;;9.47;6.90;;;12.10;99.90;;;;;;5000698;28;20266;-96
2022/09/25 13:17:41;;;;;;;7.93;7.13;;;12.10;99.90;;;;;;5000974;28;20219;-96
2022/09/25 13:20:47;;;;;;;9.40;6.47;;;12.00;99.90;;;;;;5000043;28;20254;-96
2022/09/25 13:23:28;;;;;;;7.07;6.37;;;12.00;99.90;;;;;;4981736;28;20209;-96
2022/09/25 13:26:04;;;;;;;7.40;6.60;;;11.90;99.90;;;;;;4982983;28;20258;-96
2022/09/25 13:28:39;;;;;;;11.17;7.50;;;12.00;99.90;;;;;;4992842;28;20266;-96
2022/09/25 13:31:15;;;;;;;6.97;6.27;;;12.00;99.90;;;;;;4985151;28;20217;-96
2022/09/25 13:33:51;;;;;;;7.83;6.17;;;12.00;99.90;;;;;;4984283;28;20218;-96
2022/09/25 13:36:36;;;;;;;8.10;6.80;;;12.00;99.90;;;;;;4982001;28;20568;-96
2022/09/25 13:42:07;;;;;;;7.67;6.23;;;12.00;99.90;;;;;;4991037;28;20563;-96
2022/09/25 13:44:51;;;;;;;7.77;6.13;;;11.90;99.90;;;;;;4989132;28;20279;-95
2022/09/25 13:47:52;;;;;;;7.23;5.43;;;12.00;99.90;;;;;;4984273;28;20210;-96
2022/09/25 13:50:36;;;;;;;7.03;6.30;;;12.00;99.90;;;;;;4985342;28;20257;-96
2022/09/25 13:53:50;;;;;;;6.43;5.73;;;11.90;99.90;;;;;;4995961;28;20207;-96
2022/09/25 13:56:27;;;;;;;7.27;6.33;;;11.90;99.90;;;;;;4986863;28;20211;-95
2022/09/25 13:59:24;;;;;;;7.87;6.07;;;11.90;99.90;;;;;;4981943;28;20238;-96
2022/09/25 14:02:23;;;;;;;9.80;6.13;;;11.90;99.90;;;;;;4976324;28;20435;-96
2022/09/25 14:04:56;;;;;;;7.37;5.93;;;11.90;99.90;;;;;;4965028;28;20266;-96
2022/09/25 14:07:29;;;;;;;9.77;7.33;;;11.90;99.90;;;;;;4976592;28;20226;-95
2022/09/25 14:10:04;;;;;;;10.17;7.50;;;11.90;99.90;;;;;;4972574;28;20214;-95
2022/09/25 14:12:43;;;;;;;10.13;7.90;;;11.90;99.90;;;;;;4962435;28;20737;-96